Time;durP1;ratioP1;P1;durP2;ratioP2;P2;SDS_P1;SDS_P2;PMS_P1;PMS_P2;Temp;Humidity;BMP_temperature;BMP_pressure;BME280_temperature;BME280_humidity;BME280_pressure;Samples;Min_cycle;Max_cycle;Signal;HPM_P1;HPM_P2
2022/11/18 05:00:59;;;;;;;1.00;0.90;;;8.60;99.90;;;;;;5746795;23;20482;-75
2022/11/18 05:03:26;;;;;;;1.00;0.90;;;8.60;99.90;;;;;;5004993;28;20478;-75
2022/11/18 05:05:52;;;;;;;2.63;1.20;;;8.70;99.90;;;;;;5005378;28;20494;-75
2022/11/18 05:08:19;;;;;;;1.13;0.80;;;8.70;99.90;;;;;;5005658;28;20466;-74
2022/11/18 05:10:46;;;;;;;2.90;1.07;;;8.70;99.90;;;;;;5005693;28;20792;-75
2022/11/18 05:13:12;;;;;;;2.60;1.10;;;8.60;99.90;;;;;;5004881;28;20463;-75
2022/11/18 05:15:39;;;;;;;1.20;1.10;;;8.60;99.90;;;;;;5005715;28;20454;-75
2022/11/18 05:18:09;;;;;;;1.37;0.97;;;8.60;99.90;;;;;;5005792;28;20462;-76
2022/11/18 05:20:38;;;;;;;0.87;0.87;;;8.60;99.90;;;;;;5004450;28;20986;-76
2022/11/18 05:23:04;;;;;;;1.23;1.03;;;8.70;99.90;;;;;;5005039;28;20454;-75
2022/11/18 05:25:31;;;;;;;1.83;0.90;;;8.70;99.90;;;;;;5005540;28;20490;-76
2022/11/18 05:27:58;;;;;;;4.03;1.00;;;8.60;99.90;;;;;;5005563;28;20451;-74
2022/11/18 05:30:25;;;;;;;1.07;0.97;;;8.60;99.90;;;;;;5005034;28;20465;-75
2022/11/18 05:32:51;;;;;;;1.10;1.00;;;8.50;99.90;;;;;;5004949;28;20646;-73
2022/11/18 05:35:20;;;;;;;1.20;1.00;;;8.40;99.90;;;;;;5005808;28;21076;-75
2022/11/18 05:37:46;;;;;;;2.97;1.20;;;8.40;99.90;;;;;;5005604;28;20459;-74
2022/11/18 05:40:13;;;;;;;2.40;1.30;;;8.50;99.90;;;;;;5005666;28;20469;-73
2022/11/18 05:45:24;;;;;;;4.27;1.00;;;8.50;99.90;;;;;;5005377;28;20520;-73
2022/11/18 05:48:00;;;;;;;1.13;1.13;;;8.50;99.90;;;;;;5007814;28;20470;-74
2022/11/18 05:50:28;;;;;;;1.33;1.23;;;8.50;99.90;;;;;;5009519;28;20434;-73
2022/11/18 05:52:55;;;;;;;1.60;1.50;;;8.50;99.90;;;;;;5008743;28;20465;-75
2022/11/18 05:55:24;;;;;;;1.80;1.20;;;8.50;99.90;;;;;;5009165;28;20457;-75
2022/11/18 05:57:51;;;;;;;2.40;1.30;;;8.50;99.90;;;;;;5009031;28;20973;-75
2022/11/18 06:00:18;;;;;;;2.20;1.00;;;8.50;99.90;;;;;;5008676;28;21420;-66
2022/11/18 06:02:46;;;;;;;1.00;1.00;;;8.40;99.90;;;;;;5008591;28;20454;-65
2022/11/18 06:05:14;;;;;;;1.50;1.03;;;8.40;99.90;;;;;;5012269;28;20835;-80
2022/11/18 06:07:43;;;;;;;1.17;1.07;;;8.40;99.90;;;;;;5015040;28;20463;-80
2022/11/18 06:10:16;;;;;;;1.97;1.20;;;8.50;99.90;;;;;;5015131;28;20946;-80
2022/11/18 06:12:47;;;;;;;1.50;1.37;;;8.50;99.90;;;;;;5014233;28;20462;-76
2022/11/18 06:15:18;;;;;;;1.63;1.43;;;8.60;99.90;;;;;;5014776;28;21271;-77
2022/11/18 06:17:48;;;;;;;1.23;1.13;;;8.50;99.90;;;;;;5014028;28;20454;-80
2022/11/18 06:20:17;;;;;;;1.40;1.30;;;8.60;99.90;;;;;;5014619;28;20832;-80
2022/11/18 06:22:46;;;;;;;1.93;1.77;;;8.60;99.90;;;;;;5013977;28;20459;-79
2022/11/18 06:25:13;;;;;;;3.93;1.87;;;8.60;99.90;;;;;;5015020;28;20462;-78
2022/11/18 06:27:40;;;;;;;2.00;1.40;;;8.60;99.90;;;;;;5014750;28;20461;-78
2022/11/18 06:30:08;;;;;;;1.63;1.50;;;8.60;99.90;;;;;;5014628;28;20459;-80
2022/11/18 06:32:35;;;;;;;1.90;1.70;;;8.70;99.90;;;;;;5014189;28;20479;-78
2022/11/18 06:35:02;;;;;;;3.03;1.90;;;8.70;99.90;;;;;;5014937;28;20459;-79
2022/11/18 06:37:29;;;;;;;1.50;1.40;;;8.70;99.90;;;;;;5017432;28;20537;-79
2022/11/18 06:39:57;;;;;;;2.00;1.50;;;8.70;99.90;;;;;;5023251;28;20565;-78
2022/11/18 06:45:09;;;;;;;4.23;1.10;;;8.70;99.90;;;;;;5027227;28;20442;-79
2022/11/18 06:47:36;;;;;;;1.20;1.10;;;8.70;99.90;;;;;;5027130;28;20486;-80
2022/11/18 06:50:03;;;;;;;4.30;1.67;;;8.70;99.90;;;;;;5027691;28;20461;-80
2022/11/18 06:52:30;;;;;;;1.13;1.07;;;8.80;99.90;;;;;;5018024;28;20842;-80
2022/11/18 06:54:58;;;;;;;1.00;1.00;;;8.80;99.90;;;;;;5015692;28;20484;-80
2022/11/18 06:57:25;;;;;;;2.50;1.30;;;8.80;99.90;;;;;;5014595;28;20457;-80
2022/11/18 06:59:51;;;;;;;2.63;1.40;;;8.80;99.90;;;;;;5015195;28;20908;-80
2022/11/18 07:02:18;;;;;;;2.70;1.40;;;8.80;99.90;;;;;;5014319;28;21033;-80
2022/11/18 07:04:45;;;;;;;2.00;1.23;;;8.80;99.90;;;;;;5015706;28;20461;-80
2022/11/18 07:07:12;;;;;;;8.50;1.50;;;8.80;99.90;;;;;;5015067;28;20498;-80
2022/11/18 07:09:39;;;;;;;1.50;1.40;;;8.80;99.90;;;;;;5014634;28;20462;-79
2022/11/18 07:12:07;;;;;;;1.40;1.30;;;8.80;99.90;;;;;;5014529;28;20485;-79
2022/11/18 07:14:34;;;;;;;2.10;1.60;;;8.70;99.90;;;;;;5014397;28;20459;-80
2022/11/18 07:17:01;;;;;;;3.10;1.50;;;8.70;99.90;;;;;;5014375;28;20447;-80
2022/11/18 07:19:30;;;;;;;4.60;1.90;;;8.60;99.90;;;;;;5015079;28;20465;-80
2022/11/18 07:21:58;;;;;;;3.20;2.17;;;8.50;99.90;;;;;;5015220;28;21006;-80
2022/11/18 07:24:25;;;;;;;3.63;2.47;;;8.50;99.90;;;;;;5017624;28;20491;-79
2022/11/18 07:26:53;;;;;;;2.83;2.37;;;8.40;99.90;;;;;;5016622;28;20490;-80
2022/11/18 07:29:21;;;;;;;2.60;2.13;;;8.40;99.90;;;;;;5015044;28;20468;-80
2022/11/18 07:31:48;;;;;;;4.00;2.97;;;8.30;99.90;;;;;;5013570;28;20482;-80
2022/11/18 07:34:18;;;;;;;2.77;2.33;;;8.20;99.90;;;;;;5014232;28;20618;-79
2022/11/18 07:36:45;;;;;;;1.60;1.50;;;8.20;99.90;;;;;;5011180;28;20455;-79
2022/11/18 07:39:11;;;;;;;1.77;1.57;;;8.10;99.90;;;;;;5010251;28;20514;-80
2022/11/18 07:41:40;;;;;;;3.50;1.53;;;8.10;99.90;;;;;;5009717;28;20483;-80
2022/11/18 07:44:06;;;;;;;1.43;1.30;;;8.10;99.90;;;;;;5010313;28;20720;-80
2022/11/18 07:46:36;;;;;;;1.37;1.27;;;8.10;99.90;;;;;;5010519;28;20495;-80
2022/11/18 07:49:04;;;;;;;1.43;1.33;;;8.00;99.90;;;;;;5008940;28;20489;-81
2022/11/18 07:51:33;;;;;;;1.90;1.27;;;8.00;99.90;;;;;;5007854;28;20557;-80
2022/11/18 07:54:00;;;;;;;1.70;1.60;;;8.00;99.90;;;;;;5008480;28;20459;-80
2022/11/18 07:56:27;;;;;;;3.17;1.80;;;7.90;99.90;;;;;;5007964;28;20447;-80
2022/11/18 07:58:55;;;;;;;2.47;1.77;;;7.90;99.90;;;;;;5007339;28;20455;-80
2022/11/18 08:01:23;;;;;;;3.80;1.60;;;7.90;99.90;;;;;;5007139;28;20493;-80
2022/11/18 08:03:52;;;;;;;2.40;1.50;;;7.90;99.90;;;;;;5007283;28;20455;-80
2022/11/18 08:06:19;;;;;;;2.40;1.60;;;7.90;99.90;;;;;;5008298;28;20497;-80
2022/11/18 08:08:46;;;;;;;1.67;1.47;;;8.00;99.90;;;;;;5007319;28;20963;-80
2022/11/18 08:11:16;;;;;;;1.50;1.40;;;8.00;99.90;;;;;;5006718;28;20847;-81
2022/11/18 08:13:42;;;;;;;1.57;1.47;;;8.00;99.90;;;;;;5007293;28;20458;-80
2022/11/18 08:16:13;;;;;;;1.80;1.60;;;7.90;99.90;;;;;;5008028;28;20461;-79
2022/11/18 08:18:40;;;;;;;2.80;1.80;;;7.90;99.90;;;;;;5007159;28;20498;-79
2022/11/18 08:21:09;;;;;;;2.63;2.10;;;8.00;99.90;;;;;;5007279;28;20489;-79
2022/11/18 08:23:36;;;;;;;1.90;1.73;;;8.00;99.90;;;;;;5007063;28;20451;-80
2022/11/18 08:26:05;;;;;;;2.17;1.97;;;8.00;99.90;;;;;;5007694;28;20504;-80
2022/11/18 08:28:32;;;;;;;2.03;1.80;;;8.00;99.90;;;;;;5007075;28;20807;-80
2022/11/18 08:30:59;;;;;;;2.50;2.27;;;8.00;99.90;;;;;;5007535;28;20479;-80
2022/11/18 08:33:26;;;;;;;3.87;1.63;;;8.00;99.90;;;;;;5006731;28;20529;-80
2022/11/18 08:35:53;;;;;;;2.00;1.80;;;8.00;99.90;;;;;;5007375;28;20466;-80
2022/11/18 08:38:21;;;;;;;3.17;1.60;;;8.00;99.90;;;;;;5007075;28;20825;-81
2022/11/18 08:40:48;;;;;;;1.97;1.73;;;8.00;99.90;;;;;;5007589;28;20474;-79
2022/11/18 08:43:15;;;;;;;4.70;3.10;;;8.00;99.90;;;;;;5007202;28;20473;-80
2022/11/18 08:45:42;;;;;;;2.17;1.97;;;8.00;99.90;;;;;;5007124;28;20470;-80
2022/11/18 08:48:08;;;;;;;1.90;1.63;;;8.00;99.90;;;;;;5007254;28;20494;-81
2022/11/18 08:50:35;;;;;;;1.80;1.70;;;7.90;99.90;;;;;;5008004;28;20483;-80
2022/11/18 08:53:02;;;;;;;1.77;1.67;;;8.00;99.90;;;;;;5007237;28;20825;-81
2022/11/18 08:55:30;;;;;;;2.67;1.57;;;7.90;99.90;;;;;;5006916;28;20469;-80
2022/11/18 08:57:57;;;;;;;1.77;1.67;;;7.90;99.90;;;;;;5006879;28;20454;-80
2022/11/18 09:00:24;;;;;;;1.80;1.70;;;8.00;99.90;;;;;;5007073;28;21005;-80
2022/11/18 09:02:50;;;;;;;1.60;1.50;;;8.00;99.90;;;;;;5006376;28;20463;-80
2022/11/18 09:05:17;;;;;;;2.17;1.63;;;8.00;99.90;;;;;;5007247;28;20490;-81
2022/11/18 09:07:44;;;;;;;2.30;1.87;;;8.00;99.90;;;;;;5006819;28;20494;-80
2022/11/18 09:10:11;;;;;;;2.00;1.87;;;8.00;99.90;;;;;;5007139;28;20467;-81
2022/11/18 09:12:39;;;;;;;2.50;1.80;;;8.00;99.90;;;;;;5006738;28;20970;-80
2022/11/18 09:15:07;;;;;;;4.80;1.77;;;8.00;99.90;;;;;;5008606;28;20469;-80
2022/11/18 09:17:34;;;;;;;2.00;1.87;;;8.00;99.90;;;;;;5008852;28;20455;-80
2022/11/18 09:20:01;;;;;;;1.97;1.87;;;8.10;99.90;;;;;;5008673;28;20458;-80
2022/11/18 09:22:28;;;;;;;1.60;1.50;;;8.00;99.90;;;;;;5008074;28;21033;-81
2022/11/18 09:24:54;;;;;;;2.17;1.67;;;8.00;99.90;;;;;;5009403;28;20470;-79
2022/11/18 09:27:21;;;;;;;2.53;1.70;;;8.00;99.90;;;;;;5008754;28;20487;-80
2022/11/18 09:29:49;;;;;;;1.63;1.53;;;8.00;99.90;;;;;;5009068;28;20514;-81
2022/11/18 09:32:16;;;;;;;4.20;1.60;;;8.10;99.90;;;;;;5007381;28;20478;-79
2022/11/18 09:34:43;;;;;;;2.13;1.80;;;8.00;99.90;;;;;;5008717;28;20455;-79
2022/11/18 09:37:10;;;;;;;1.80;1.70;;;8.00;99.90;;;;;;5009506;28;20465;-80
2022/11/18 09:39:37;;;;;;;3.13;1.80;;;8.00;99.90;;;;;;5009050;28;20455;-80
2022/11/18 09:42:19;;;;;;;2.47;1.90;;;8.10;99.90;;;;;;5008014;28;20532;-81
2022/11/18 09:45:01;;;;;;;3.17;1.77;;;8.10;99.90;;;;;;5008854;28;20525;-81
2022/11/18 09:47:30;;;;;;;3.20;2.40;;;8.20;99.90;;;;;;5008585;28;20494;-80
2022/11/18 09:50:00;;;;;;;2.70;2.40;;;8.20;99.90;;;;;;5008797;28;20462;-81
2022/11/18 09:52:30;;;;;;;2.30;2.10;;;8.20;99.90;;;;;;5007861;28;20486;-80
2022/11/18 09:54:59;;;;;;;2.30;2.00;;;8.20;99.90;;;;;;5009028;28;20463;-81
2022/11/18 09:57:31;;;;;;;2.20;2.00;;;8.20;99.90;;;;;;5008712;28;20451;-81
2022/11/18 10:00:01;;;;;;;4.30;2.17;;;8.20;99.90;;;;;;5008605;28;20447;-81
2022/11/18 10:02:45;;;;;;;3.03;2.00;;;8.20;99.90;;;;;;5007999;28;20490;-79
2022/11/18 10:05:16;;;;;;;3.77;2.33;;;8.20;99.90;;;;;;5008805;28;20454;-80
2022/11/18 10:07:49;;;;;;;2.37;2.17;;;8.20;99.90;;;;;;5009187;28;20853;-82
2022/11/18 10:10:22;;;;;;;6.40;2.30;;;8.20;99.90;;;;;;5009193;28;20469;-80
2022/11/18 10:12:55;;;;;;;2.13;1.93;;;8.30;99.90;;;;;;5008056;28;20535;-82
2022/11/18 10:15:30;;;;;;;3.60;2.60;;;8.30;99.90;;;;;;5009578;28;20470;-81
2022/11/18 10:18:07;;;;;;;3.67;2.53;;;8.30;99.90;;;;;;5009448;28;20445;-82
2022/11/18 10:20:48;;;;;;;9.50;2.93;;;8.30;99.90;;;;;;5007232;28;20858;-78
2022/11/18 10:23:21;;;;;;;3.60;3.13;;;8.40;99.90;;;;;;5003075;28;20442;-79
2022/11/18 10:25:48;;;;;;;3.30;2.40;;;8.40;99.90;;;;;;5002810;28;20888;-81
2022/11/18 10:28:22;;;;;;;2.60;2.40;;;8.40;99.90;;;;;;5003977;28;20494;-79
2022/11/18 10:30:51;;;;;;;2.73;2.40;;;8.40;99.90;;;;;;5003711;28;20774;-79
2022/11/18 10:33:26;;;;;;;2.60;2.40;;;8.40;99.90;;;;;;5004448;28;20462;-79
2022/11/18 10:36:19;;;;;;;3.13;2.70;;;8.30;99.90;;;;;;5007376;28;20818;-79
2022/11/18 10:38:46;;;;;;;2.70;2.50;;;8.40;99.90;;;;;;5007745;28;20462;-79
2022/11/18 10:41:15;;;;;;;3.20;2.90;;;8.40;99.90;;;;;;5010143;28;20845;-80
2022/11/18 10:43:45;;;;;;;4.67;3.00;;;8.50;99.90;;;;;;5009616;28;20458;-80
2022/11/18 10:46:28;;;;;;;3.57;3.00;;;8.50;99.90;;;;;;5009996;28;20951;-79
2022/11/18 10:49:13;;;;;;;3.93;3.33;;;8.50;99.90;;;;;;5008616;28;20471;-80
2022/11/18 10:51:42;;;;;;;3.60;3.30;;;8.50;99.90;;;;;;5009683;28;20477;-80
2022/11/18 10:54:25;;;;;;;5.37;3.57;;;8.50;99.90;;;;;;5011488;28;20466;-81
2022/11/18 10:56:56;;;;;;;4.57;4.17;;;8.50;99.90;;;;;;5011980;28;20435;-81
2022/11/18 10:59:31;;;;;;;4.63;3.50;;;8.60;99.90;;;;;;5009712;28;20459;-81
2022/11/18 11:02:03;;;;;;;5.13;3.50;;;8.60;99.90;;;;;;5009988;28;20486;-81
2022/11/18 11:04:30;;;;;;;4.47;4.07;;;8.60;99.90;;;;;;5010392;28;20453;-81
2022/11/18 11:06:58;;;;;;;4.07;3.60;;;8.70;99.90;;;;;;5011056;28;20509;-82
2022/11/18 11:09:29;;;;;;;4.80;3.70;;;8.60;99.90;;;;;;5012455;28;20898;-82
2022/11/18 11:11:59;;;;;;;3.70;3.33;;;8.70;99.90;;;;;;5014380;28;20475;-81
2022/11/18 11:14:36;;;;;;;4.00;3.23;;;8.70;99.90;;;;;;5016046;28;20465;-82
2022/11/18 11:17:09;;;;;;;4.23;3.70;;;8.70;99.90;;;;;;5016704;28;20488;-82
2022/11/18 11:19:51;;;;;;;4.90;4.43;;;8.80;99.90;;;;;;5015775;28;20463;-80
2022/11/18 11:22:19;;;;;;;6.90;4.87;;;8.80;99.90;;;;;;5012878;28;20487;-82
2022/11/18 11:24:46;;;;;;;5.63;4.10;;;8.90;99.90;;;;;;5011231;28;20489;-82
2022/11/18 11:27:39;;;;;;;5.93;4.30;;;8.90;99.90;;;;;;5013485;28;20490;-81
2022/11/18 11:30:12;;;;;;;5.53;4.53;;;8.90;99.90;;;;;;5013320;28;20550;-79
2022/11/18 11:33:00;;;;;;;5.30;4.00;;;8.90;99.90;;;;;;5011847;28;20529;-80
2022/11/18 11:35:33;;;;;;;4.40;3.87;;;8.90;99.90;;;;;;5012951;28;20438;-80
2022/11/18 11:38:04;;;;;;;8.00;4.50;;;8.80;99.90;;;;;;5012138;28;20485;-79
2022/11/18 11:40:38;;;;;;;4.90;4.17;;;8.90;99.90;;;;;;5012043;28;20477;-80
2022/11/18 11:43:22;;;;;;;5.73;3.57;;;8.90;99.90;;;;;;5013029;28;20443;-80
2022/11/18 11:46:05;;;;;;;6.50;4.43;;;8.90;99.90;;;;;;5011981;28;20447;-80
2022/11/18 11:48:45;;;;;;;4.63;3.80;;;8.90;99.90;;;;;;5011421;28;20564;-81
2022/11/18 11:51:20;;;;;;;5.77;4.60;;;9.00;99.90;;;;;;5011421;28;20471;-81
2022/11/18 11:54:02;;;;;;;5.40;4.20;;;9.00;99.90;;;;;;5009676;28;20443;-81
2022/11/18 11:56:34;;;;;;;8.43;4.40;;;9.00;99.90;;;;;;5010559;28;20510;-81
2022/11/18 11:59:18;;;;;;;13.97;4.53;;;9.10;99.90;;;;;;5011812;28;20565;-80
2022/11/18 12:01:57;;;;;;;4.57;4.13;;;9.10;99.90;;;;;;5010407;28;20486;-81
2022/11/18 12:04:34;;;;;;;5.97;4.00;;;9.20;99.90;;;;;;5011775;28;20448;-80
2022/11/18 12:07:04;;;;;;;6.67;4.13;;;9.20;99.90;;;;;;5011769;28;20473;-81
2022/11/18 12:10:03;;;;;;;7.10;4.63;;;9.20;99.90;;;;;;5010656;28;20912;-82
2022/11/18 12:12:37;;;;;;;5.53;4.90;;;9.20;99.90;;;;;;5009892;28;20475;-80
2022/11/18 12:15:24;;;;;;;5.60;4.90;;;9.20;99.90;;;;;;5010703;28;20474;-81
2022/11/18 12:17:59;;;;;;;5.10;4.60;;;9.30;99.90;;;;;;5011418;28;20435;-81
2022/11/18 12:20:46;;;;;;;6.80;4.23;;;9.30;99.90;;;;;;5011099;28;20477;-82
2022/11/18 12:23:16;;;;;;;4.30;3.90;;;9.30;99.90;;;;;;5010166;28;20466;-81
2022/11/18 12:26:04;;;;;;;7.60;4.13;;;9.30;99.90;;;;;;5013455;28;20462;-81
2022/11/18 12:28:35;;;;;;;6.17;3.90;;;9.30;99.90;;;;;;5013047;28;20497;-82
2022/11/18 12:31:34;;;;;;;8.50;3.90;;;9.30;99.90;;;;;;5011656;28;20482;-81
2022/11/18 12:34:17;;;;;;;3.57;3.30;;;9.40;99.90;;;;;;5011212;28;20458;-80
2022/11/18 12:36:50;;;;;;;3.77;3.47;;;9.40;99.90;;;;;;5011371;28;20459;-81
2022/11/18 12:39:48;;;;;;;7.07;4.30;;;9.50;99.90;;;;;;5011390;28;20447;-80
2022/11/18 12:45:54;;;;;;;4.30;3.03;;;9.50;99.90;;;;;;5010274;28;20517;-81
2022/11/18 12:48:38;;;;;;;4.47;2.93;;;9.60;99.90;;;;;;4968381;28;20490;-81
2022/11/18 12:51:45;;;;;;;3.07;2.40;;;9.60;99.90;;;;;;5005805;28;20490;-81
2022/11/18 12:54:32;;;;;;;6.00;2.20;;;9.60;99.90;;;;;;5010330;28;20530;-81
2022/11/18 12:57:01;;;;;;;7.50;2.63;;;9.70;99.90;;;;;;5011180;28;20494;-81
2022/11/18 12:59:31;;;;;;;6.27;2.00;;;9.60;99.90;;;;;;5011674;28;20470;-82
2022/11/18 13:02:21;;;;;;;2.47;1.90;;;9.70;99.90;;;;;;5010836;28;20586;-81
2022/11/18 13:05:04;;;;;;;5.50;2.20;;;9.70;99.90;;;;;;5013811;28;20508;-82
2022/11/18 13:10:26;;;;;;;2.47;2.27;;;9.90;99.90;;;;;;5023710;28;20418;-81
2022/11/18 13:12:54;;;;;;;2.63;2.40;;;9.90;99.90;;;;;;5011692;28;20442;-67
2022/11/18 13:18:08;;;;;;;2.27;1.90;;;9.90;99.90;;;;;;4971909;28;20442;-67
2022/11/18 13:20:36;;;;;;;2.47;2.00;;;9.90;99.90;;;;;;5007083;28;20479;-80
2022/11/18 13:26:14;;;;;;;5.50;2.07;;;9.80;99.90;;;;;;5008943;28;20413;-80
2022/11/18 13:28:46;;;;;;;2.43;1.90;;;9.60;99.90;;;;;;5008944;28;20494;-80
2022/11/18 13:31:26;;;;;;;2.27;2.10;;;9.60;99.90;;;;;;5008084;28;20939;-79
2022/11/18 13:33:53;;;;;;;7.90;2.40;;;9.60;99.90;;;;;;5007376;28;20463;-79
2022/11/18 13:36:23;;;;;;;3.37;2.23;;;9.60;99.90;;;;;;5007270;28;20553;-79
2022/11/18 13:38:56;;;;;;;7.60;2.50;;;9.60;99.90;;;;;;5007001;28;20900;-79
2022/11/18 13:41:31;;;;;;;5.70;2.70;;;9.70;99.90;;;;;;5006811;28;20478;-79
2022/11/18 13:44:11;;;;;;;3.93;2.57;;;9.70;99.90;;;;;;5005640;28;20892;-80
2022/11/18 13:46:39;;;;;;;3.30;2.43;;;9.70;99.90;;;;;;5007644;28;20462;-76
2022/11/18 13:49:06;;;;;;;4.33;2.70;;;9.70;99.90;;;;;;5007273;28;20494;-77
2022/11/18 13:51:33;;;;;;;3.67;2.40;;;9.60;99.90;;;;;;5006939;28;21165;-80
2022/11/18 13:54:00;;;;;;;4.00;2.70;;;9.60;99.90;;;;;;5007077;28;20455;-78
2022/11/18 13:56:30;;;;;;;3.77;2.60;;;9.50;99.90;;;;;;5006213;28;20458;-78
2022/11/18 13:59:00;;;;;;;5.47;3.07;;;9.40;99.90;;;;;;5006627;28;20920;-79
2022/11/18 14:01:29;;;;;;;4.50;3.67;;;9.50;99.90;;;;;;4971864;28;1072244;-77
2022/11/18 14:04:03;;;;;;;5.63;3.17;;;9.50;99.90;;;;;;5010618;28;20220;-80
2022/11/18 14:06:32;;;;;;;4.03;2.80;;;9.40;99.90;;;;;;5006699;28;20462;-76
2022/11/18 14:09:15;;;;;;;8.53;3.17;;;9.40;99.90;;;;;;5009024;28;21006;-77
2022/11/18 14:11:45;;;;;;;4.80;3.20;;;9.40;99.90;;;;;;5011210;28;20485;-77
2022/11/18 14:14:27;;;;;;;6.97;3.33;;;9.40;99.90;;;;;;5010165;28;20462;-78
2022/11/18 14:16:54;;;;;;;5.97;3.70;;;9.40;99.90;;;;;;5011094;28;20443;-78
2022/11/18 14:19:32;;;;;;;5.40;3.60;;;9.50;99.90;;;;;;5010881;28;20454;-78
2022/11/18 14:22:05;;;;;;;8.17;3.50;;;9.50;99.90;;;;;;5009750;28;21009;-78
2022/11/18 14:24:32;;;;;;;4.63;3.10;;;9.40;99.90;;;;;;5011064;28;20439;-77
2022/11/18 14:27:36;;;;;;;7.90;3.23;;;9.40;99.90;;;;;;5010729;28;20461;-79
2022/11/18 14:30:29;;;;;;;5.77;3.00;;;9.40;99.90;;;;;;5009558;28;20537;-77
2022/11/18 14:33:16;;;;;;;4.80;3.33;;;9.30;99.90;;;;;;5008800;28;20447;-77
2022/11/18 14:35:45;;;;;;;4.63;2.47;;;9.30;99.90;;;;;;5008790;28;20546;-77
2022/11/18 14:38:14;;;;;;;10.37;3.00;;;9.30;99.90;;;;;;5007844;28;20458;-77
2022/11/18 14:40:41;;;;;;;7.70;3.63;;;9.30;99.90;;;;;;5008384;28;20550;-77
2022/11/18 14:43:11;;;;;;;5.97;3.40;;;9.30;99.90;;;;;;5008054;28;20895;-77
2022/11/18 14:45:38;;;;;;;6.73;3.10;;;9.30;99.90;;;;;;5008677;28;20451;-77
2022/11/18 14:48:06;;;;;;;3.30;2.87;;;9.30;99.90;;;;;;5008324;28;21006;-77
2022/11/18 14:50:35;;;;;;;8.03;4.40;;;9.20;99.90;;;;;;5008537;28;20492;-77
2022/11/18 14:53:09;;;;;;;7.83;3.90;;;9.20;99.90;;;;;;5007754;28;20466;-77
2022/11/18 14:55:36;;;;;;;6.57;3.43;;;9.20;99.90;;;;;;5008470;28;20491;-77
2022/11/18 14:58:03;;;;;;;6.80;3.60;;;9.20;99.90;;;;;;5008647;28;20908;-77
2022/11/18 15:00:31;;;;;;;6.90;3.70;;;9.10;99.90;;;;;;5007607;28;20462;-77
2022/11/18 15:03:01;;;;;;;6.57;3.40;;;9.10;99.90;;;;;;5007469;28;20455;-77
2022/11/18 15:05:28;;;;;;;6.17;2.77;;;9.10;99.90;;;;;;5007972;28;20978;-77
2022/11/18 15:07:54;;;;;;;5.20;2.90;;;9.10;99.90;;;;;;5008280;28;20629;-76
2022/11/18 15:10:21;;;;;;;6.40;3.70;;;9.00;99.90;;;;;;5008332;28;20454;-77
2022/11/18 15:12:48;;;;;;;3.30;2.90;;;9.10;99.90;;;;;;5007702;28;20469;-77
2022/11/18 15:15:15;;;;;;;5.20;2.30;;;9.00;99.90;;;;;;5007620;28;20459;-77
2022/11/18 15:17:43;;;;;;;3.47;2.00;;;9.00;99.90;;;;;;5008503;28;20484;-77
2022/11/18 15:20:13;;;;;;;3.30;1.87;;;8.90;99.90;;;;;;5007625;28;20462;-77
2022/11/18 15:22:42;;;;;;;7.30;2.23;;;8.90;99.90;;;;;;5007606;28;20439;-77
2022/11/18 15:25:09;;;;;;;3.27;2.43;;;8.90;99.90;;;;;;5008197;28;20528;-77
2022/11/18 15:27:37;;;;;;;4.43;2.43;;;8.90;99.90;;;;;;5008271;28;20477;-77
2022/11/18 15:30:04;;;;;;;3.70;2.03;;;8.80;99.90;;;;;;5008777;28;20491;-77
2022/11/18 15:32:33;;;;;;;5.10;2.40;;;8.80;99.90;;;;;;5008599;28;20483;-77
2022/11/18 15:35:01;;;;;;;4.90;3.10;;;8.70;99.90;;;;;;5008896;28;20474;-77
2022/11/18 15:37:28;;;;;;;3.07;2.77;;;8.80;99.90;;;;;;5009540;28;20458;-77
2022/11/18 15:39:55;;;;;;;3.57;2.50;;;8.80;99.90;;;;;;5009235;28;20465;-77
2022/11/18 15:42:21;;;;;;;6.13;3.67;;;8.70;99.90;;;;;;5007657;28;20490;-78
2022/11/18 15:44:48;;;;;;;8.83;3.67;;;8.70;99.90;;;;;;5009072;28;20488;-77
2022/11/18 15:47:15;;;;;;;8.60;4.50;;;8.80;99.90;;;;;;5009256;28;20469;-77
2022/11/18 15:49:44;;;;;;;18.17;11.10;;;8.80;99.90;;;;;;5008756;28;20490;-78
2022/11/18 15:52:12;;;;;;;24.17;12.60;;;8.80;99.90;;;;;;5006598;28;20502;-78
2022/11/18 15:54:39;;;;;;;22.03;11.50;;;8.90;99.90;;;;;;5006573;28;20499;-78
2022/11/18 15:57:06;;;;;;;19.07;10.77;;;8.90;99.90;;;;;;5006814;28;20469;-78
2022/11/18 15:59:33;;;;;;;7.50;5.07;;;9.00;99.90;;;;;;5006549;28;20455;-78
2022/11/18 16:01:59;;;;;;;8.20;5.13;;;9.00;99.90;;;;;;5005864;28;20494;-78
2022/11/18 16:04:26;;;;;;;10.73;5.10;;;9.00;99.90;;;;;;5007154;28;20454;-78
2022/11/18 16:06:53;;;;;;;7.17;5.10;;;9.10;99.90;;;;;;5006733;28;20451;-78
2022/11/18 16:09:21;;;;;;;6.00;4.80;;;9.10;99.90;;;;;;5006500;28;20846;-78
2022/11/18 16:14:35;;;;;;;7.70;5.87;;;9.10;99.90;;;;;;5006427;28;20870;-77
2022/11/18 16:17:02;;;;;;;11.40;7.53;;;9.20;99.90;;;;;;5006635;28;20455;-78
2022/11/18 16:19:32;;;;;;;9.53;7.60;;;9.20;99.90;;;;;;5007305;28;20573;-77
2022/11/18 16:21:59;;;;;;;10.73;7.33;;;9.20;99.90;;;;;;5007010;28;20490;-78
2022/11/18 16:24:29;;;;;;;9.27;6.90;;;9.20;99.90;;;;;;5007233;28;20830;-78
2022/11/18 16:26:58;;;;;;;9.17;7.57;;;9.20;99.90;;;;;;5007869;28;20470;-78
2022/11/18 16:29:24;;;;;;;7.90;6.13;;;9.20;99.90;;;;;;5007461;28;20505;-78
2022/11/18 16:31:53;;;;;;;9.70;7.20;;;9.10;99.90;;;;;;5006267;28;20852;-78
2022/11/18 16:34:21;;;;;;;9.50;7.40;;;9.20;99.90;;;;;;5007860;28;20990;-77
2022/11/18 16:36:50;;;;;;;21.63;16.37;;;9.20;99.90;;;;;;5007525;28;20455;-78
2022/11/18 16:39:22;;;;;;;22.80;15.70;;;9.10;99.90;;;;;;5007209;28;20464;-77
2022/11/18 16:41:51;;;;;;;83.77;53.40;;;9.10;99.90;;;;;;5006472;28;20489;-78
2022/11/18 16:44:19;;;;;;;24.30;14.53;;;9.20;99.90;;;;;;5007217;28;20463;-78
2022/11/18 16:46:48;;;;;;;31.13;20.20;;;9.10;99.90;;;;;;5007533;28;20465;-78
2022/11/18 16:49:16;;;;;;;24.90;15.97;;;9.10;99.90;;;;;;5006842;28;20490;-78
2022/11/18 16:51:44;;;;;;;24.83;14.97;;;9.00;99.90;;;;;;5006018;28;20537;-78
2022/11/18 16:54:17;;;;;;;12.63;8.40;;;9.00;99.90;;;;;;5006564;28;20463;-77
2022/11/18 16:56:44;;;;;;;14.63;9.23;;;9.00;99.90;;;;;;5006485;28;20447;-78
2022/11/18 16:59:14;;;;;;;14.67;9.27;;;8.90;99.90;;;;;;5006472;28;20456;-78
2022/11/18 17:01:41;;;;;;;11.57;8.93;;;9.00;99.90;;;;;;5005340;28;21073;-78
2022/11/18 17:04:07;;;;;;;10.20;6.93;;;9.00;99.90;;;;;;5005883;28;20459;-77
2022/11/18 17:06:34;;;;;;;9.80;6.40;;;9.00;99.90;;;;;;5005238;28;20469;-78
2022/11/18 17:09:01;;;;;;;19.00;7.70;;;9.00;99.90;;;;;;5006344;28;20494;-78
2022/11/18 17:11:28;;;;;;;10.17;7.10;;;9.00;99.90;;;;;;5006574;28;20489;-78
2022/11/18 17:13:55;;;;;;;9.10;7.80;;;9.10;99.90;;;;;;5005208;28;20459;-77
2022/11/18 17:16:25;;;;;;;11.43;7.80;;;9.10;99.90;;;;;;5006605;28;20455;-77
2022/11/18 17:18:55;;;;;;;25.60;10.43;;;9.10;99.90;;;;;;5006066;28;20826;-78
2022/11/18 17:21:21;;;;;;;10.90;8.53;;;9.20;99.90;;;;;;5005720;28;20479;-78
2022/11/18 17:23:49;;;;;;;12.80;7.90;;;9.20;99.90;;;;;;5002115;28;20459;-78
2022/11/18 17:26:18;;;;;;;11.73;8.27;;;9.20;99.90;;;;;;5006073;28;20454;-78
2022/11/18 17:28:44;;;;;;;11.60;7.67;;;9.20;99.90;;;;;;5006341;28;20494;-78
2022/11/18 17:31:13;;;;;;;15.77;10.53;;;9.20;99.90;;;;;;5006520;28;20487;-78
2022/11/18 17:33:41;;;;;;;27.60;13.53;;;9.20;99.90;;;;;;5006062;28;20481;-78
2022/11/18 17:36:10;;;;;;;20.50;12.47;;;9.20;99.90;;;;;;5006596;28;20521;-78
2022/11/18 17:38:38;;;;;;;23.40;14.30;;;9.20;99.90;;;;;;5006276;28;20461;-79
2022/11/18 17:41:06;;;;;;;23.73;15.83;;;9.30;99.90;;;;;;5006218;28;20954;-78
2022/11/18 17:43:33;;;;;;;20.40;14.00;;;9.30;99.90;;;;;;5009448;28;20457;-78
2022/11/18 17:46:01;;;;;;;21.20;14.30;;;9.30;99.90;;;;;;5012109;28;20463;-79
2022/11/18 17:48:31;;;;;;;22.00;14.93;;;9.30;99.90;;;;;;5013086;28;20857;-78
2022/11/18 17:51:05;;;;;;;23.77;15.00;;;9.30;99.90;;;;;;5013718;28;20506;-78
2022/11/18 17:53:32;;;;;;;19.50;14.47;;;9.30;99.90;;;;;;5013256;28;20920;-78
2022/11/18 17:55:59;;;;;;;16.30;12.47;;;9.30;99.90;;;;;;5013844;28;20467;-78
2022/11/18 17:58:26;;;;;;;17.00;13.30;;;9.30;99.90;;;;;;5014515;28;20496;-78
2022/11/18 18:00:52;;;;;;;15.40;10.03;;;9.30;99.90;;;;;;5016057;28;21156;-78
2022/11/18 18:03:19;;;;;;;13.23;9.80;;;9.30;99.90;;;;;;5014023;28;20462;-78
2022/11/18 18:05:46;;;;;;;12.60;9.40;;;9.30;99.90;;;;;;5014209;28;20464;-78
2022/11/18 18:08:14;;;;;;;12.73;9.07;;;9.20;99.90;;;;;;5013773;28;20895;-78
2022/11/18 18:10:41;;;;;;;14.10;9.03;;;9.10;99.90;;;;;;5013717;28;20510;-78
2022/11/18 18:16:00;;;;;;;16.23;9.50;;;9.10;99.90;;;;;;5013780;28;20426;-78
2022/11/18 18:18:27;;;;;;;11.97;7.97;;;9.10;99.90;;;;;;5013484;28;20517;-78
2022/11/18 18:20:54;;;;;;;14.07;9.47;;;9.10;99.90;;;;;;5014056;28;20484;-78
2022/11/18 18:23:25;;;;;;;13.30;9.73;;;9.00;99.90;;;;;;5012858;28;20816;-79
2022/11/18 18:25:52;;;;;;;12.60;8.10;;;9.00;99.90;;;;;;5014982;28;20501;-78
2022/11/18 18:28:19;;;;;;;13.80;9.10;;;9.00;99.90;;;;;;5016711;28;20458;-78
2022/11/18 18:30:45;;;;;;;13.37;8.83;;;8.90;99.90;;;;;;5015317;28;20509;-78
2022/11/18 18:33:12;;;;;;;11.20;8.60;;;8.90;99.90;;;;;;5012890;28;20463;-78
2022/11/18 18:35:40;;;;;;;12.97;8.60;;;8.90;99.90;;;;;;5011981;28;20462;-78